createdAt,value
2022-11-02T00:01:23.365Z,9.70
2022-11-02T00:03:49.264Z,9.64
2022-11-02T00:06:15.069Z,9.71
2022-11-02T00:08:40.981Z,9.77
2022-11-02T00:11:06.881Z,9.70
2022-11-02T00:13:32.706Z,9.69
2022-11-02T00:16:08.097Z,9.78
2022-11-02T00:18:35.133Z,9.76
2022-11-02T00:21:02.482Z,9.85
2022-11-02T00:23:29.419Z,9.99
2022-11-02T00:25:57.913Z,10.02
2022-11-02T00:28:27.363Z,10.00
2022-11-02T00:30:53.906Z,9.94
2022-11-02T00:33:19.688Z,9.95
2022-11-02T00:35:45.913Z,9.91
2022-11-02T00:38:11.898Z,9.96
2022-11-02T00:40:37.809Z,10.01
2022-11-02T00:43:03.916Z,9.96
2022-11-02T00:45:29.728Z,9.99
2022-11-02T00:47:55.460Z,9.91
2022-11-02T00:50:21.240Z,9.84
2022-11-02T00:52:47.057Z,9.86
2022-11-02T00:55:14.381Z,9.78
2022-11-02T00:57:40.713Z,9.80
2022-11-02T01:00:09.296Z,9.63
2022-11-02T01:02:35.324Z,9.79
2022-11-02T01:05:02.197Z,9.82
2022-11-02T01:07:28.348Z,9.81
2022-11-02T01:09:54.146Z,9.81
2022-11-02T01:12:20.313Z,9.72
2022-11-02T01:14:47.269Z,9.73
2022-11-02T01:17:13.623Z,9.83
2022-11-02T01:19:39.400Z,9.84
2022-11-02T01:22:05.882Z,9.77
2022-11-02T01:24:31.853Z,9.71
2022-11-02T01:26:57.621Z,9.77
2022-11-02T01:29:23.398Z,9.86
2022-11-02T01:31:49.239Z,9.73
2022-11-02T01:34:15.077Z,9.76
2022-11-02T01:36:43.698Z,9.76
2022-11-02T01:39:09.480Z,9.69
2022-11-02T01:41:35.262Z,9.80
2022-11-02T01:44:02.266Z,9.85
2022-11-02T01:46:42.082Z,9.73
2022-11-02T01:49:12.706Z,9.82
2022-11-02T01:51:44.982Z,9.87
2022-11-02T01:54:16.097Z,9.91
2022-11-02T01:56:46.748Z,9.90
2022-11-02T01:59:22.861Z,9.90
2022-11-02T02:01:48.907Z,9.98
2022-11-02T02:04:15.226Z,10.10
2022-11-02T02:06:41.647Z,10.10
2022-11-02T02:09:08.746Z,9.98
2022-11-02T02:11:36.756Z,10.03
2022-11-02T02:14:07.462Z,10.07
2022-11-02T02:16:58.409Z,10.06
2022-11-02T02:19:30.890Z,10.00
2022-11-02T02:22:07.365Z,10.02
2022-11-02T02:24:54.047Z,10.11
2022-11-02T02:27:40.033Z,10.04
2022-11-02T02:30:09.815Z,10.24
2022-11-02T02:32:43.281Z,10.24
2022-11-02T02:35:18.545Z,10.06
2022-11-02T02:38:01.199Z,10.12
2022-11-02T02:40:37.020Z,10.07
2022-11-02T02:43:34.957Z,10.02
2022-11-02T02:46:07.623Z,10.05
2022-11-02T02:48:35.497Z,10.07
2022-11-02T02:51:10.386Z,10.07
2022-11-02T02:53:53.395Z,9.90
2022-11-02T02:56:24.621Z,9.87
2022-11-02T02:58:52.991Z,9.88
2022-11-02T03:01:19.315Z,9.93
2022-11-02T03:03:46.492Z,10.08
2022-11-02T03:06:15.707Z,9.94
2022-11-02T03:08:47.654Z,10.07
2022-11-02T03:11:20.286Z,10.08
2022-11-02T03:13:57.219Z,10.06
2022-11-02T03:16:42.153Z,9.96
2022-11-02T03:19:27.851Z,9.84
2022-11-02T03:22:08.316Z,9.90
2022-11-02T03:24:52.412Z,9.88
2022-11-02T03:27:24.551Z,9.84
2022-11-02T03:30:04.941Z,9.69
2022-11-02T03:32:53.956Z,9.81
2022-11-02T03:35:54.080Z,9.83
2022-11-02T03:38:35.430Z,9.76
2022-11-02T03:41:04.140Z,9.68
2022-11-02T03:43:33.762Z,9.67
2022-11-02T03:46:02.541Z,9.74
2022-11-02T03:48:41.480Z,9.68
2022-11-02T03:51:12.123Z,9.76
2022-11-02T03:53:50.747Z,9.79
2022-11-02T03:56:22.616Z,9.70
2022-11-02T03:58:48.456Z,9.59
2022-11-02T04:01:16.320Z,9.59
2022-11-02T04:03:45.318Z,9.64
2022-11-02T04:06:12.246Z,9.74
2022-11-02T04:08:48.807Z,9.77
2022-11-02T04:11:34.365Z,9.64
2022-11-02T04:14:18.677Z,9.72
2022-11-02T04:16:44.556Z,9.72
2022-11-02T04:19:45.524Z,9.67
2022-11-02T04:22:33.184Z,9.66
2022-11-02T04:25:17.545Z,9.79
2022-11-02T04:27:52.892Z,9.67
2022-11-02T04:30:21.775Z,9.70
2022-11-02T04:33:08.363Z,9.89
2022-11-02T04:35:35.769Z,10.02
2022-11-02T04:38:20.177Z,9.98
2022-11-02T04:40:46.332Z,9.97
2022-11-02T04:43:12.207Z,9.96
2022-11-02T04:45:38.407Z,9.96
2022-11-02T04:48:09.066Z,10.09
2022-11-02T04:50:35.719Z,9.85
2022-11-02T04:53:03.957Z,9.88
2022-11-02T04:55:29.987Z,9.92
2022-11-02T04:57:55.863Z,9.98
2022-11-02T05:00:22.771Z,9.97
2022-11-02T05:02:49.745Z,9.97
2022-11-02T05:05:16.642Z,9.98
2022-11-02T05:07:43.227Z,9.90
2022-11-02T05:10:09.791Z,9.85
2022-11-02T05:12:35.656Z,9.84
2022-11-02T05:15:01.441Z,9.86
2022-11-02T05:17:27.425Z,9.97
2022-11-02T05:19:53.197Z,9.95
2022-11-02T05:22:20.632Z,9.72
2022-11-02T05:24:46.375Z,9.70
2022-11-02T05:27:12.185Z,9.80
2022-11-02T05:29:37.961Z,9.67
2022-11-02T05:32:03.983Z,9.71
2022-11-02T05:34:29.811Z,9.73
2022-11-02T05:36:55.576Z,9.88
2022-11-02T05:39:21.508Z,9.80
2022-11-02T05:41:47.283Z,9.91
2022-11-02T05:44:13.131Z,9.97
2022-11-02T05:46:42.717Z,9.90
2022-11-02T05:49:08.493Z,9.90
2022-11-02T05:51:34.327Z,10.01
2022-11-02T05:54:00.120Z,10.02
2022-11-02T05:56:25.891Z,10.06
2022-11-02T05:58:54.018Z,9.85
2022-11-02T06:01:19.807Z,9.82
2022-11-02T06:03:49.054Z,9.89
2022-11-02T06:06:18.919Z,9.94
2022-11-02T06:08:44.726Z,9.87
2022-11-02T06:11:12.206Z,9.70
2022-11-02T06:13:39.364Z,9.80
2022-11-02T06:16:08.690Z,9.89
2022-11-02T06:18:35.247Z,9.95
2022-11-02T06:21:01.477Z,9.95
2022-11-02T06:23:28.387Z,9.94
2022-11-02T06:25:56.027Z,9.90
2022-11-02T06:28:22.229Z,9.94
2022-11-02T06:30:51.435Z,10.01
2022-11-02T06:33:18.311Z,9.92
2022-11-02T06:35:45.505Z,9.92
2022-11-02T06:38:11.554Z,9.96
2022-11-02T06:40:37.572Z,9.95
2022-11-02T06:43:15.967Z,10.01
2022-11-02T06:45:42.692Z,10.05
2022-11-02T06:48:08.650Z,9.97
2022-11-02T06:50:34.419Z,9.96
2022-11-02T06:53:00.279Z,10.01
2022-11-02T06:55:26.247Z,9.99
2022-11-02T06:57:52.069Z,9.92
2022-11-02T07:00:21.003Z,10.03
2022-11-02T07:03:04.767Z,9.90
2022-11-02T07:05:31.084Z,9.92
2022-11-02T07:07:57.065Z,10.08
2022-11-02T07:10:23.425Z,10.08
2022-11-02T07:12:53.662Z,10.09
2022-11-02T07:15:22.355Z,10.16
2022-11-02T07:17:48.429Z,10.18
2022-11-02T07:20:14.525Z,10.05
2022-11-02T07:22:40.619Z,10.03
2022-11-02T07:25:06.879Z,10.13
2022-11-02T07:27:38.461Z,10.17
2022-11-02T07:30:05.071Z,10.20
2022-11-02T07:32:37.718Z,10.19
2022-11-02T07:35:03.761Z,10.26
2022-11-02T07:37:29.540Z,10.42
2022-11-02T07:39:55.385Z,10.33
2022-11-02T07:42:21.164Z,10.16
2022-11-02T07:44:46.983Z,10.31
2022-11-02T07:47:12.756Z,10.32
2022-11-02T07:49:38.534Z,10.24
2022-11-02T07:52:04.476Z,10.44
2022-11-02T07:54:30.243Z,10.48
2022-11-02T07:56:56.029Z,10.52
2022-11-02T07:59:21.805Z,10.54
2022-11-02T08:01:47.779Z,10.47
2022-11-02T08:04:14.168Z,10.42
2022-11-02T08:06:40.068Z,10.35
2022-11-02T08:09:05.874Z,10.40
2022-11-02T08:11:31.730Z,10.34
2022-11-02T08:13:58.117Z,10.47
2022-11-02T08:16:23.972Z,10.57
2022-11-02T08:18:49.770Z,10.54
2022-11-02T08:21:15.549Z,10.59
2022-11-02T08:23:41.339Z,10.54
2022-11-02T08:26:07.191Z,10.42
2022-11-02T08:28:39.301Z,10.26
2022-11-02T08:31:09.135Z,10.18
2022-11-02T08:33:34.909Z,10.16
2022-11-02T08:36:03.076Z,10.27
2022-11-02T08:38:28.886Z,10.32
2022-11-02T08:40:55.263Z,10.33
2022-11-02T08:43:21.111Z,10.42
2022-11-02T08:48:32.692Z,10.57
2022-11-02T08:50:58.541Z,10.54
2022-11-02T08:53:24.391Z,10.70
2022-11-02T08:55:50.379Z,10.77
2022-11-02T08:58:17.770Z,10.86
2022-11-02T09:00:44.213Z,11.06
2022-11-02T09:03:14.891Z,11.19
2022-11-02T09:05:43.210Z,11.10
2022-11-02T09:08:12.027Z,11.27
2022-11-02T09:10:37.894Z,11.39
2022-11-02T09:13:06.131Z,11.56
2022-11-02T09:15:34.740Z,11.68
2022-11-02T09:18:00.713Z,11.74
2022-11-02T09:20:26.505Z,12.14
2022-11-02T09:22:52.327Z,12.04
2022-11-02T09:25:18.451Z,12.37
2022-11-02T09:27:44.679Z,12.52
2022-11-02T09:30:11.516Z,12.57
2022-11-02T09:32:37.920Z,12.67
2022-11-02T09:35:07.833Z,12.81
2022-11-02T09:37:33.956Z,14.26
2022-11-02T09:39:59.897Z,15.39
2022-11-02T09:43:17.938Z,16.05
2022-11-02T09:46:16.950Z,15.95
2022-11-02T09:48:50.397Z,16.52
2022-11-02T09:51:26.061Z,15.49
2022-11-02T09:53:54.735Z,16.04
2022-11-02T09:56:20.620Z,16.26
2022-11-02T09:58:56.504Z,14.92
2022-11-02T10:01:57.086Z,13.23
2022-11-02T10:04:26.128Z,13.32
2022-11-02T10:07:02.210Z,12.22
2022-11-02T10:09:36.886Z,11.52
2022-11-02T10:12:11.137Z,11.29
2022-11-02T10:14:41.584Z,11.85
2022-11-02T10:17:16.711Z,12.15
2022-11-02T10:19:47.735Z,11.74
2022-11-02T10:22:15.771Z,11.57
2022-11-02T10:24:44.704Z,11.09
2022-11-02T10:27:22.942Z,11.71
2022-11-02T10:29:51.614Z,13.74
2022-11-02T10:32:17.605Z,13.15
2022-11-02T10:34:50.565Z,14.25
2022-11-02T10:37:43.575Z,18.87
2022-11-02T10:40:40.104Z,24.28
2022-11-02T10:43:20.885Z,27.94
2022-11-02T10:46:18.530Z,28.22
2022-11-02T10:49:09.631Z,26.58
2022-11-02T10:51:35.518Z,22.52
2022-11-02T10:54:01.467Z,23.36
2022-11-02T10:56:32.308Z,26.59
2022-11-02T10:58:58.029Z,28.82
2022-11-02T11:01:24.678Z,30.78
2022-11-02T11:04:21.758Z,31.16
2022-11-02T11:06:48.090Z,31.87
2022-11-02T11:09:25.500Z,30.71
2022-11-02T11:12:14.263Z,25.37
2022-11-02T11:20:38.497Z,27.67
2022-11-02T11:23:18.744Z,28.98
2022-11-02T11:26:05.568Z,25.68
2022-11-02T11:28:51.332Z,24.34
2022-11-02T11:31:18.040Z,23.44
2022-11-02T11:34:01.988Z,21.11
2022-11-02T11:36:34.627Z,20.06
2022-11-02T11:39:03.112Z,19.32
2022-11-02T11:41:31.987Z,21.42
2022-11-02T11:43:59.201Z,21.36
2022-11-02T11:46:39.651Z,20.96
2022-11-02T11:50:08.090Z,18.50
2022-11-02T11:52:29.933Z,16.46
2022-11-02T11:55:02.140Z,16.55
2022-11-02T11:57:30.642Z,17.50
2022-11-02T11:59:59.195Z,18.86
2022-11-02T12:02:30.901Z,21.32
2022-11-02T12:05:14.551Z,21.06
2022-11-02T12:07:56.029Z,23.31
2022-11-02T12:10:40.499Z,23.91
2022-11-02T12:13:26.542Z,23.43
2022-11-02T12:16:44.351Z,25.72
2022-11-02T12:19:32.975Z,27.46
2022-11-02T12:22:24.799Z,28.55
2022-11-02T12:25:40.354Z,26.14
2022-11-02T12:28:37.994Z,26.49
2022-11-02T12:31:41.852Z,26.40
2022-11-02T12:34:26.276Z,23.30
2022-11-02T12:37:41.181Z,20.63
2022-11-02T12:40:30.275Z,23.11
2022-11-02T12:43:21.822Z,26.03
2022-11-02T12:46:19.191Z,27.46
2022-11-02T12:49:09.537Z,25.58
2022-11-02T12:51:56.520Z,24.59
2022-11-02T12:54:32.392Z,23.08
2022-11-02T12:56:58.325Z,20.62
2022-11-02T12:59:29.934Z,18.49
2022-11-02T13:04:55.518Z,19.52
2022-11-02T13:07:36.158Z,18.84
2022-11-02T13:10:07.203Z,20.69
2022-11-02T13:12:36.886Z,23.00
2022-11-02T13:15:07.957Z,23.78
2022-11-02T13:17:51.601Z,23.77
2022-11-02T13:20:17.495Z,24.57
2022-11-02T13:22:47.712Z,25.31
2022-11-02T13:25:25.688Z,24.06
2022-11-02T13:28:23.009Z,20.25
2022-11-02T13:30:49.494Z,18.60
2022-11-02T13:33:25.954Z,17.10
2022-11-02T13:35:53.478Z,16.44
2022-11-02T13:38:37.388Z,15.68
2022-11-02T13:41:18.073Z,15.35
2022-11-02T13:44:26.889Z,14.89
2022-11-02T13:46:54.698Z,14.65
2022-11-02T13:49:36.919Z,14.49
2022-11-02T13:52:12.270Z,14.19
2022-11-02T13:55:00.904Z,14.26
2022-11-02T13:57:41.961Z,14.40
2022-11-02T14:00:43.692Z,14.29
2022-11-02T14:03:17.623Z,14.11
2022-11-02T14:05:50.575Z,13.88
2022-11-02T14:08:34.083Z,13.66
2022-11-02T14:11:24.125Z,13.73
2022-11-02T14:13:52.979Z,13.94
2022-11-02T14:16:49.748Z,13.47
2022-11-02T14:19:19.171Z,13.45
2022-11-02T14:21:49.130Z,13.50
2022-11-02T14:24:33.678Z,13.44
2022-11-02T14:27:13.085Z,13.37
2022-11-02T14:29:41.603Z,13.43
2022-11-02T14:32:16.144Z,13.25
2022-11-02T14:34:53.793Z,12.93
2022-11-02T14:37:27.590Z,13.00
2022-11-02T14:40:12.102Z,13.10
2022-11-02T14:42:45.792Z,13.05
2022-11-02T14:45:27.748Z,13.11
2022-11-02T14:48:00.205Z,12.97
2022-11-02T14:50:26.439Z,12.96
2022-11-02T14:53:04.701Z,13.17
2022-11-02T14:55:32.786Z,13.00
2022-11-02T14:58:06.545Z,12.74
2022-11-02T15:00:53.565Z,12.79
2022-11-02T15:03:28.688Z,12.33
2022-11-02T15:06:03.803Z,12.35
2022-11-02T15:08:49.621Z,12.28
2022-11-02T15:11:52.960Z,12.20
2022-11-02T15:14:47.946Z,12.04
2022-11-02T15:17:16.753Z,12.12
2022-11-02T15:19:45.815Z,12.00
2022-11-02T15:22:40.413Z,11.88
2022-11-02T15:25:08.892Z,12.03
2022-11-02T15:27:37.337Z,12.08
2022-11-02T15:30:06.229Z,12.06
2022-11-02T15:32:38.406Z,12.11
2022-11-02T15:35:04.984Z,12.13
2022-11-02T15:37:45.284Z,11.94
2022-11-02T15:40:26.835Z,11.81
2022-11-02T15:43:08.289Z,11.78
2022-11-02T15:45:53.392Z,11.66
2022-11-02T15:48:35.607Z,11.66
2022-11-02T15:51:10.465Z,11.70
2022-11-02T15:53:36.282Z,11.57
2022-11-02T15:56:24.519Z,11.54
2022-11-02T15:58:53.429Z,11.45
2022-11-02T16:01:24.759Z,11.46
2022-11-02T16:03:58.449Z,11.50
2022-11-02T16:06:37.249Z,11.31
2022-11-02T16:09:33.682Z,11.13
2022-11-02T16:12:00.592Z,11.09
2022-11-02T16:14:30.260Z,11.14
2022-11-02T16:16:56.018Z,11.01
2022-11-02T16:19:22.325Z,11.15
2022-11-02T16:21:49.510Z,11.15
2022-11-02T16:24:15.983Z,11.03
2022-11-02T16:26:43.993Z,11.25
2022-11-02T16:29:10.446Z,11.27
2022-11-02T16:31:37.268Z,11.15
2022-11-02T16:34:15.270Z,11.00
2022-11-02T16:36:41.531Z,11.04
2022-11-02T16:39:20.519Z,10.92
2022-11-02T16:42:02.299Z,10.93
2022-11-02T16:44:33.072Z,10.85
2022-11-02T16:47:10.872Z,10.89
2022-11-02T16:50:22.583Z,10.74
2022-11-02T16:53:01.444Z,10.75
2022-11-02T16:55:46.189Z,10.67
2022-11-02T16:58:20.953Z,10.72
2022-11-02T17:01:04.596Z,10.53
2022-11-02T17:03:33.052Z,10.56
2022-11-02T17:06:03.444Z,10.43
2022-11-02T17:08:38.649Z,10.47
2022-11-02T17:11:07.092Z,10.43
2022-11-02T17:13:37.221Z,10.41
2022-11-02T17:16:10.635Z,10.30
2022-11-02T17:18:37.513Z,10.23
2022-11-02T17:21:12.662Z,10.24
2022-11-02T17:23:44.059Z,10.34
2022-11-02T17:26:21.869Z,10.36
2022-11-02T17:29:25.890Z,10.19
2022-11-02T17:31:57.868Z,10.25
2022-11-02T17:34:24.012Z,10.26
2022-11-02T17:36:51.141Z,10.08
2022-11-02T17:39:19.602Z,10.05
2022-11-02T17:42:15.814Z,10.17
2022-11-02T17:44:44.587Z,10.11
2022-11-02T17:47:12.018Z,10.05
2022-11-02T17:49:38.191Z,10.06
2022-11-02T17:52:04.327Z,10.00
2022-11-02T17:54:30.187Z,9.86
2022-11-02T17:56:56.057Z,9.91
2022-11-02T17:59:21.832Z,9.83
2022-11-02T18:01:47.770Z,9.93
2022-11-02T18:04:13.751Z,9.67
2022-11-02T18:06:40.372Z,9.67
2022-11-02T18:09:13.711Z,9.62
2022-11-02T18:11:40.519Z,9.63
2022-11-02T18:14:12.513Z,9.72
2022-11-02T18:16:38.378Z,9.73
2022-11-02T18:19:04.177Z,9.64
2022-11-02T18:21:30.013Z,9.57
2022-11-02T18:23:55.835Z,9.54
2022-11-02T18:26:22.039Z,9.62
2022-11-02T18:28:47.805Z,9.49
2022-11-02T18:31:13.616Z,9.55
2022-11-02T18:33:41.971Z,9.57
2022-11-02T18:36:09.411Z,9.35
2022-11-02T18:38:36.126Z,9.41
2022-11-02T18:41:27.000Z,9.34
2022-11-02T18:43:57.972Z,9.25
2022-11-02T18:46:30.668Z,9.28
2022-11-02T18:48:57.188Z,9.42
2022-11-02T18:51:23.373Z,9.44
2022-11-02T18:54:00.521Z,9.44
2022-11-02T18:56:27.116Z,9.52
2022-11-02T18:58:54.045Z,9.57
2022-11-02T19:01:21.099Z,9.57
2022-11-02T19:03:53.287Z,9.57
2022-11-02T19:06:38.167Z,9.46
2022-11-02T19:09:18.085Z,9.46
2022-11-02T19:11:51.866Z,9.53
2022-11-02T19:14:18.305Z,9.53
2022-11-02T19:16:44.359Z,9.43
2022-11-02T19:19:10.585Z,9.54
2022-11-02T19:21:36.500Z,9.59
2022-11-02T19:24:04.317Z,9.57
2022-11-02T19:26:30.318Z,9.70
2022-11-02T19:28:57.219Z,9.60
2022-11-02T19:31:24.834Z,9.52
2022-11-02T19:33:50.966Z,9.42
2022-11-02T19:36:17.035Z,9.34
2022-11-02T19:38:42.819Z,9.44
2022-11-02T19:41:16.211Z,9.35
2022-11-02T19:43:43.909Z,9.25
2022-11-02T19:46:15.282Z,9.32
2022-11-02T19:48:41.402Z,9.25
2022-11-02T19:51:08.738Z,9.25
2022-11-02T19:53:35.789Z,9.34
2022-11-02T19:56:02.300Z,9.23
2022-11-02T19:58:28.207Z,9.31
2022-11-02T20:00:54.171Z,9.26
2022-11-02T20:03:20.057Z,9.24
2022-11-02T20:05:47.335Z,9.27
2022-11-02T20:08:16.505Z,9.35
2022-11-02T20:10:42.439Z,9.33
2022-11-02T20:13:09.632Z,9.26
2022-11-02T20:15:39.582Z,9.17
2022-11-02T20:18:18.955Z,9.11
2022-11-02T20:20:45.579Z,9.15
2022-11-02T20:23:11.375Z,9.15
2022-11-02T20:25:37.468Z,9.11
2022-11-02T20:28:03.582Z,9.01
2022-11-02T20:30:29.669Z,8.98
2022-11-02T20:32:55.546Z,8.94
2022-11-02T20:35:24.821Z,9.00
2022-11-02T20:37:51.393Z,9.03
2022-11-02T20:40:17.288Z,9.15
2022-11-02T20:42:43.188Z,9.05
2022-11-02T20:45:09.612Z,8.87
2022-11-02T20:47:35.380Z,8.91
2022-11-02T20:50:01.190Z,8.88
2022-11-02T20:52:27.052Z,8.84
2022-11-02T20:54:52.825Z,8.90
2022-11-02T20:57:18.678Z,8.83
2022-11-02T20:59:44.741Z,8.85
2022-11-02T21:02:11.806Z,8.87
2022-11-02T21:04:37.726Z,8.82
2022-11-02T21:07:03.612Z,8.87
2022-11-02T21:09:29.865Z,8.83
2022-11-02T21:12:34.057Z,8.82
2022-11-02T21:15:00.128Z,8.88
2022-11-02T21:17:26.333Z,8.87
2022-11-02T21:19:58.389Z,8.97
2022-11-02T21:22:33.920Z,8.98
2022-11-02T21:24:59.813Z,8.91
2022-11-02T21:27:25.648Z,8.85
2022-11-02T21:29:51.498Z,8.88
2022-11-02T21:32:17.394Z,8.92
2022-11-02T21:34:43.306Z,9.00
2022-11-02T21:37:09.136Z,9.04
2022-11-02T21:39:35.797Z,8.95
2022-11-02T21:42:02.813Z,9.00
2022-11-02T21:44:29.013Z,8.90
2022-11-02T21:46:55.467Z,8.90
2022-11-02T21:49:21.532Z,8.99
2022-11-02T21:51:47.458Z,9.07
2022-11-02T21:54:13.324Z,9.05
2022-11-02T21:56:39.348Z,9.00
2022-11-02T21:59:05.657Z,8.99
2022-11-02T22:01:45.939Z,8.93
2022-11-02T22:04:18.597Z,8.95
2022-11-02T22:06:44.500Z,8.89
2022-11-02T22:09:12.087Z,8.92
2022-11-02T22:11:38.012Z,8.92
2022-11-02T22:14:04.207Z,8.92
2022-11-02T22:16:35.349Z,8.89
2022-11-02T22:19:04.461Z,8.96
2022-11-02T22:21:32.779Z,8.93
2022-11-02T22:23:59.598Z,8.96
2022-11-02T22:26:27.789Z,8.95
2022-11-02T22:28:55.901Z,8.90
2022-11-02T22:31:24.350Z,8.96
2022-11-02T22:33:52.828Z,8.98
2022-11-02T22:36:20.831Z,8.93
2022-11-02T22:38:53.451Z,8.87
2022-11-02T22:41:30.549Z,8.91
2022-11-02T22:43:58.839Z,8.82
2022-11-02T22:46:26.862Z,8.93
2022-11-02T22:48:54.590Z,8.80
2022-11-02T22:51:23.036Z,8.84
2022-11-02T22:53:49.209Z,8.93
2022-11-02T22:56:17.013Z,8.94
2022-11-02T22:58:44.956Z,8.86
2022-11-02T23:01:17.558Z,8.95
2022-11-02T23:03:44.334Z,8.95
2022-11-02T23:06:11.052Z,8.95
2022-11-02T23:08:41.106Z,9.03
2022-11-02T23:11:21.454Z,8.93
2022-11-02T23:13:55.139Z,9.03
2022-11-02T23:16:26.563Z,8.94
2022-11-02T23:19:26.399Z,8.98
2022-11-02T23:22:13.497Z,9.10
2022-11-02T23:24:59.375Z,9.01
2022-11-02T23:27:25.711Z,9.03
2022-11-02T23:30:10.206Z,9.13
2022-11-02T23:32:36.471Z,9.04
2022-11-02T23:35:20.996Z,9.03
2022-11-02T23:37:46.835Z,9.09
2022-11-02T23:40:15.720Z,9.07
2022-11-02T23:42:42.015Z,9.02
2022-11-02T23:45:08.930Z,9.02
2022-11-02T23:47:53.142Z,8.92
2022-11-02T23:50:38.628Z,9.01
2022-11-02T23:53:23.864Z,8.86
2022-11-02T23:56:10.283Z,8.89
2022-11-02T23:58:37.668Z,8.90
